Time;durP1;ratioP1;P1;durP2;ratioP2;P2;SDS_P1;SDS_P2;PMS_P1;PMS_P2;Temp;Humidity;BMP_temperature;BMP_pressure;BME280_temperature;BME280_humidity;BME280_pressure;Samples;Min_cycle;Max_cycle;Signal;HPM_P1;HPM_P2
2024/03/12 00:00:22;;;;;;;4.53;3.95;;;6.90;82.00;;;;;;5060662;28;20033;-61
2024/03/12 00:02:50;;;;;;;5.18;4.13;;;6.90;82.10;;;;;;5058053;28;20499;-62
2024/03/12 00:05:20;;;;;;;5.35;4.50;;;6.90;81.90;;;;;;5059666;28;20040;-62
2024/03/12 00:07:46;;;;;;;4.70;4.20;;;6.90;81.90;;;;;;5057241;28;20037;-61
2024/03/12 00:10:17;;;;;;;5.18;4.55;;;6.90;81.80;;;;;;5060517;28;20059;-62
2024/03/12 00:12:51;;;;;;;7.18;4.50;;;6.90;81.70;;;;;;5056316;28;20408;-62
2024/03/12 00:15:19;;;;;;;5.82;4.43;;;6.90;81.70;;;;;;5057732;28;20069;-61
2024/03/12 00:17:45;;;;;;;5.22;4.47;;;6.90;81.60;;;;;;5060990;28;20040;-62
2024/03/12 00:22:58;;;;;;;7.30;6.00;;;6.90;81.50;;;;;;5057669;28;20186;-62
2024/03/12 00:25:24;;;;;;;7.07;6.38;;;6.90;81.40;;;;;;5058795;28;20037;-62
2024/03/12 00:27:50;;;;;;;7.80;7.00;;;6.90;81.50;;;;;;5057543;28;20025;-62
2024/03/12 00:30:18;;;;;;;9.02;8.13;;;6.90;81.40;;;;;;5054928;28;20162;-62
2024/03/12 00:32:49;;;;;;;9.95;8.80;;;6.90;81.30;;;;;;5060288;28;20032;-62
2024/03/12 00:35:15;;;;;;;9.05;7.55;;;6.90;81.50;;;;;;5062338;28;20454;-62
2024/03/12 00:37:41;;;;;;;8.43;7.50;;;6.90;81.50;;;;;;5060901;28;20055;-62
2024/03/12 00:40:11;;;;;;;7.95;6.28;;;7.00;81.70;;;;;;5060608;28;20047;-62
2024/03/12 00:42:41;;;;;;;6.63;5.32;;;7.00;81.90;;;;;;5052988;28;20064;-62
2024/03/12 00:45:11;;;;;;;5.50;5.00;;;7.00;82.00;;;;;;5054725;28;20496;-62
2024/03/12 00:50:13;;;;;;;4.78;3.53;;;7.00;82.70;;;;;;5127200;22;20087;-60
2024/03/12 00:52:40;;;;;;;3.72;3.40;;;7.00;81.90;;;;;;5041038;28;20044;-61
2024/03/12 00:55:09;;;;;;;3.38;3.08;;;7.00;82.70;;;;;;5040549;28;20652;-62
2024/03/12 00:57:42;;;;;;;3.28;2.70;;;7.00;82.00;;;;;;5042972;28;20044;-61
2024/03/12 01:00:16;;;;;;;3.28;2.38;;;7.00;82.20;;;;;;5043021;28;20036;-61
2024/03/12 01:02:49;;;;;;;5.25;2.20;;;7.00;82.20;;;;;;5045526;28;20034;-60
2024/03/12 01:05:17;;;;;;;4.28;2.42;;;7.00;82.30;;;;;;5042814;28;20507;-61
2024/03/12 01:07:42;;;;;;;2.63;2.22;;;7.00;82.30;;;;;;5047870;28;20146;-61
2024/03/12 01:10:08;;;;;;;3.20;2.22;;;7.00;82.20;;;;;;5046265;28;20059;-59
2024/03/12 01:12:34;;;;;;;3.17;2.42;;;7.00;82.20;;;;;;5048399;28;20094;-61
2024/03/12 01:14:59;;;;;;;3.67;2.10;;;7.00;82.50;;;;;;5048340;28;20053;-61
2024/03/12 01:17:25;;;;;;;3.00;2.20;;;7.00;82.70;;;;;;5048494;28;20037;-60
2024/03/12 01:19:51;;;;;;;2.85;2.22;;;7.00;82.60;;;;;;5048381;28;20028;-61
2024/03/12 01:22:16;;;;;;;3.30;2.35;;;7.00;82.60;;;;;;5046114;28;21546;-61
2024/03/12 01:24:42;;;;;;;3.78;2.20;;;7.00;82.60;;;;;;5045070;28;20032;-60
2024/03/12 01:27:09;;;;;;;3.38;2.28;;;7.00;82.50;;;;;;5049192;28;20029;-61
2024/03/12 01:29:35;;;;;;;2.33;1.98;;;7.00;82.30;;;;;;5042688;28;20376;-62
2024/03/12 01:32:00;;;;;;;2.67;1.90;;;7.00;82.30;;;;;;5046441;28;20196;-61
2024/03/12 01:34:26;;;;;;;2.97;1.90;;;7.00;82.20;;;;;;5050265;28;20037;-61
2024/03/12 01:36:53;;;;;;;3.00;2.05;;;7.00;82.20;;;;;;5048558;28;20033;-61
2024/03/12 01:39:26;;;;;;;3.35;1.83;;;6.90;82.10;;;;;;5046928;28;20057;-62
2024/03/12 01:41:55;;;;;;;3.00;1.90;;;6.90;82.20;;;;;;5047243;28;20021;-62
2024/03/12 01:44:21;;;;;;;2.28;1.77;;;6.90;82.60;;;;;;5047820;28;20048;-61
2024/03/12 01:46:47;;;;;;;4.60;1.95;;;6.90;82.60;;;;;;5044165;28;20033;-61
2024/03/12 01:49:14;;;;;;;2.92;1.92;;;7.00;82.90;;;;;;5048000;28;20041;-60
2024/03/12 01:51:41;;;;;;;2.60;1.58;;;7.00;83.10;;;;;;5043395;28;20407;-60
2024/03/12 01:54:08;;;;;;;2.28;1.83;;;7.00;83.20;;;;;;5047167;28;20037;-60
2024/03/12 01:56:35;;;;;;;2.28;1.80;;;7.10;83.30;;;;;;5045539;28;20029;-62
2024/03/12 01:59:01;;;;;;;2.75;1.70;;;7.10;83.30;;;;;;5046952;28;20033;-61
2024/03/12 02:01:26;;;;;;;3.08;1.75;;;7.10;83.30;;;;;;5047205;28;20117;-61
2024/03/12 02:03:52;;;;;;;2.08;1.88;;;7.20;83.30;;;;;;5045686;28;20128;-61
2024/03/12 02:06:19;;;;;;;2.38;1.80;;;7.20;83.30;;;;;;5051763;28;20032;-61
2024/03/12 02:08:49;;;;;;;2.20;1.73;;;7.20;84.00;;;;;;5047577;28;20639;-61
2024/03/12 02:11:15;;;;;;;2.10;1.90;;;7.30;83.20;;;;;;5047217;28;20037;-61
2024/03/12 02:13:41;;;;;;;1.98;1.80;;;7.30;83.10;;;;;;5047366;28;20039;-61
2024/03/12 02:16:08;;;;;;;2.65;2.03;;;7.30;83.10;;;;;;5046581;28;20466;-61
2024/03/12 02:18:34;;;;;;;2.17;1.90;;;7.40;83.20;;;;;;5046386;28;20033;-61
2024/03/12 02:21:00;;;;;;;2.50;1.90;;;7.30;83.10;;;;;;5042646;28;20040;-60
2024/03/12 02:23:38;;;;;;;2.10;1.90;;;7.30;83.10;;;;;;5047973;28;20025;-60
2024/03/12 02:26:05;;;;;;;2.22;2.03;;;7.40;83.40;;;;;;5047364;28;20040;-61
2024/03/12 02:28:31;;;;;;;3.55;2.22;;;7.40;83.10;;;;;;5047193;28;20463;-61
2024/03/12 02:30:57;;;;;;;2.20;1.70;;;7.40;83.10;;;;;;5048810;28;20040;-61
2024/03/12 02:33:23;;;;;;;2.83;2.08;;;7.40;83.10;;;;;;5044908;28;20052;-61
2024/03/12 02:35:48;;;;;;;2.67;2.00;;;7.40;83.00;;;;;;5043217;28;20033;-60
2024/03/12 02:38:14;;;;;;;2.28;2.08;;;7.50;83.00;;;;;;5045279;28;20063;-61
2024/03/12 02:40:41;;;;;;;2.58;2.20;;;7.50;82.90;;;;;;5039145;28;20044;-60
2024/03/12 02:43:06;;;;;;;2.95;2.15;;;7.50;82.90;;;;;;5040797;28;20102;-61
2024/03/12 02:45:33;;;;;;;2.30;2.10;;;7.50;82.70;;;;;;5041817;28;20518;-61
2024/03/12 02:47:59;;;;;;;2.30;1.90;;;7.50;82.80;;;;;;5041976;28;20037;-61
2024/03/12 02:50:25;;;;;;;4.07;1.95;;;7.50;82.70;;;;;;5042998;28;20040;-61
2024/03/12 02:52:50;;;;;;;1.92;1.77;;;7.50;82.60;;;;;;5042520;28;20037;-61
2024/03/12 02:55:19;;;;;;;2.20;1.98;;;7.50;82.60;;;;;;5048286;28;20076;-60
2024/03/12 02:57:44;;;;;;;2.33;2.00;;;7.50;82.60;;;;;;5043499;28;20067;-60
2024/03/12 03:00:11;;;;;;;2.72;2.10;;;7.50;82.60;;;;;;5047689;28;20314;-61
2024/03/12 03:02:37;;;;;;;3.22;2.00;;;7.50;82.60;;;;;;5039607;28;20063;-61
2024/03/12 03:05:06;;;;;;;2.20;1.90;;;7.50;82.60;;;;;;5042458;28;20504;-61
2024/03/12 03:07:32;;;;;;;2.17;1.95;;;7.50;82.60;;;;;;5042686;28;20038;-60
2024/03/12 03:09:58;;;;;;;2.30;2.10;;;7.50;82.50;;;;;;5046500;28;20039;-62
2024/03/12 03:12:23;;;;;;;2.45;2.10;;;7.40;82.40;;;;;;5043933;28;20036;-61
2024/03/12 03:14:49;;;;;;;2.20;2.00;;;7.40;82.30;;;;;;5043254;28;20519;-61
2024/03/12 03:17:14;;;;;;;2.63;2.15;;;7.40;82.40;;;;;;5044424;28;20128;-61
2024/03/12 03:19:40;;;;;;;2.88;2.30;;;7.40;82.40;;;;;;5041550;28;20436;-60
2024/03/12 03:22:07;;;;;;;2.22;2.03;;;7.40;82.40;;;;;;5047134;28;20040;-62
2024/03/12 03:24:36;;;;;;;2.63;2.20;;;7.40;82.50;;;;;;5043473;28;20600;-61
2024/03/12 03:27:03;;;;;;;2.22;2.03;;;7.40;82.60;;;;;;5047773;28;20044;-61
2024/03/12 03:29:31;;;;;;;3.42;2.10;;;7.30;82.60;;;;;;5044409;28;20033;-61
2024/03/12 03:31:58;;;;;;;2.60;2.40;;;7.30;82.70;;;;;;5042066;28;20045;-61
2024/03/12 03:34:31;;;;;;;2.08;1.90;;;7.30;82.70;;;;;;5038373;28;20033;-60
2024/03/12 03:36:57;;;;;;;2.40;2.20;;;7.30;82.60;;;;;;5045460;28;20037;-61
2024/03/12 03:39:24;;;;;;;2.50;2.30;;;7.30;82.40;;;;;;5045078;28;20029;-61
2024/03/12 03:41:51;;;;;;;2.22;2.00;;;7.30;82.40;;;;;;5045918;28;20029;-61
2024/03/12 03:44:17;;;;;;;3.30;2.15;;;7.30;82.40;;;;;;5045709;28;20068;-61
2024/03/12 03:46:43;;;;;;;3.08;2.30;;;7.30;82.30;;;;;;5041061;28;20041;-60
2024/03/12 03:49:08;;;;;;;2.08;1.88;;;7.30;82.20;;;;;;5045507;28;20040;-60
2024/03/12 03:51:35;;;;;;;3.88;2.22;;;7.30;82.20;;;;;;5044729;28;20044;-61
2024/03/12 03:54:03;;;;;;;3.20;2.17;;;7.30;82.00;;;;;;5044797;28;20053;-61
2024/03/12 03:56:30;;;;;;;3.15;2.17;;;7.20;81.90;;;;;;5043927;28;20033;-61
2024/03/12 03:59:00;;;;;;;3.15;2.30;;;7.30;82.00;;;;;;5040732;28;20159;-61
2024/03/12 04:01:29;;;;;;;2.38;2.17;;;7.20;81.90;;;;;;5044291;28;20040;-60
2024/03/12 04:03:58;;;;;;;2.75;2.38;;;7.20;81.90;;;;;;5046134;28;20040;-61
2024/03/12 04:06:24;;;;;;;3.42;2.00;;;7.20;81.90;;;;;;5043305;28;20033;-60
2024/03/12 04:08:50;;;;;;;2.70;2.10;;;7.10;81.90;;;;;;5039862;28;20511;-61
2024/03/12 04:11:16;;;;;;;2.58;2.38;;;7.10;81.90;;;;;;5041921;28;20120;-60
2024/03/12 04:13:42;;;;;;;3.03;2.17;;;7.10;81.90;;;;;;5046102;28;20037;-61
2024/03/12 04:16:08;;;;;;;3.35;2.40;;;7.10;82.70;;;;;;5040566;28;20404;-61
2024/03/12 04:18:34;;;;;;;3.67;2.65;;;7.10;81.90;;;;;;5046264;28;20029;-59
2024/03/12 04:21:00;;;;;;;3.53;3.13;;;7.10;81.90;;;;;;5041368;28;20499;-59
2024/03/12 04:23:25;;;;;;;3.90;3.00;;;7.00;81.90;;;;;;5042030;28;20067;-61
2024/03/12 04:25:53;;;;;;;3.28;2.90;;;7.00;81.90;;;;;;5043998;28;20543;-61
2024/03/12 04:28:19;;;;;;;5.43;2.85;;;7.00;82.00;;;;;;5046268;28;20025;-60
2024/03/12 04:30:51;;;;;;;3.30;2.90;;;7.00;82.10;;;;;;5041070;28;20037;-61
2024/03/12 04:33:17;;;;;;;3.25;2.88;;;6.90;82.10;;;;;;5040566;28;20511;-61
2024/03/12 04:35:44;;;;;;;2.80;2.60;;;6.90;82.00;;;;;;5041042;28;20041;-61
2024/03/12 04:38:09;;;;;;;3.47;3.00;;;6.90;82.00;;;;;;5040918;28;20033;-61
2024/03/12 04:40:35;;;;;;;3.22;2.80;;;6.90;82.00;;;;;;5040116;28;20037;-61
2024/03/12 04:43:02;;;;;;;4.43;3.15;;;6.90;82.00;;;;;;5046016;28;20033;-61
2024/03/12 04:45:28;;;;;;;4.10;3.05;;;6.90;82.00;;;;;;5046068;28;20047;-59
2024/03/12 04:47:54;;;;;;;4.88;3.22;;;6.90;82.30;;;;;;5041336;28;20036;-61
2024/03/12 04:50:22;;;;;;;3.70;3.30;;;6.80;82.40;;;;;;5038794;28;20052;-61
2024/03/12 04:52:49;;;;;;;3.42;3.15;;;6.80;82.70;;;;;;5042935;28;20534;-61
2024/03/12 04:55:15;;;;;;;3.70;3.25;;;6.90;82.90;;;;;;5039590;28;20040;-61
2024/03/12 04:57:41;;;;;;;3.55;3.25;;;6.80;82.90;;;;;;5042967;28;20033;-60
2024/03/12 05:00:13;;;;;;;4.35;3.17;;;6.80;82.90;;;;;;5045529;28;20385;-60
2024/03/12 05:02:39;;;;;;;4.63;3.90;;;6.80;83.00;;;;;;5039303;28;20044;-60
2024/03/12 05:05:07;;;;;;;4.20;3.80;;;6.80;83.00;;;;;;5038808;28;20175;-60
2024/03/12 05:07:33;;;;;;;5.28;3.95;;;6.80;83.10;;;;;;5040531;28;20041;-61
2024/03/12 05:09:59;;;;;;;5.50;3.80;;;6.80;83.20;;;;;;5040714;28;20064;-62
2024/03/12 05:12:25;;;;;;;4.70;3.65;;;6.80;83.40;;;;;;5044873;28;20083;-60
2024/03/12 05:14:51;;;;;;;5.72;3.60;;;6.80;83.60;;;;;;5044440;28;20095;-61
2024/03/12 05:17:16;;;;;;;7.40;3.80;;;6.80;83.60;;;;;;5044432;28;20051;-62
2024/03/12 05:19:43;;;;;;;5.30;4.60;;;6.70;83.60;;;;;;5046346;28;20395;-61
2024/03/12 05:22:09;;;;;;;7.88;5.50;;;6.80;83.70;;;;;;5044631;28;20025;-60
2024/03/12 05:24:35;;;;;;;6.53;5.75;;;6.80;83.70;;;;;;5039739;28;20167;-59
2024/03/12 05:27:01;;;;;;;7.18;5.40;;;6.70;83.60;;;;;;5037607;28;20127;-61
2024/03/12 05:29:36;;;;;;;8.52;5.63;;;6.80;83.70;;;;;;5039565;28;20556;-61
2024/03/12 05:32:17;;;;;;;6.63;5.28;;;6.80;83.80;;;;;;5044071;28;20033;-61
2024/03/12 05:34:52;;;;;;;9.32;5.25;;;6.80;83.80;;;;;;5041693;28;20532;-61
2024/03/12 05:37:40;;;;;;;7.25;5.72;;;6.80;83.70;;;;;;5043263;28;20025;-60
2024/03/12 05:40:16;;;;;;;7.00;5.28;;;6.80;83.80;;;;;;5046662;28;20581;-61
2024/03/12 05:48:12;;;;;;;7.65;5.25;;;6.70;83.80;;;;;;5046452;28;20125;-61
2024/03/12 05:50:41;;;;;;;6.22;4.88;;;6.80;84.00;;;;;;5049475;28;20116;-61
2024/03/12 05:53:08;;;;;;;4.93;4.35;;;6.80;84.10;;;;;;5049705;28;20044;-61
2024/03/12 05:55:34;;;;;;;5.43;4.30;;;6.80;84.00;;;;;;5047199;28;20061;-61
2024/03/12 05:58:00;;;;;;;9.35;4.43;;;6.80;84.20;;;;;;5046760;28;20048;-62
2024/03/12 06:00:25;;;;;;;5.78;4.63;;;6.80;84.30;;;;;;5051958;28;20036;-61
2024/03/12 06:02:51;;;;;;;8.43;3.85;;;6.80;84.40;;;;;;5047696;28;20037;-60
2024/03/12 06:05:17;;;;;;;4.47;3.38;;;6.80;84.30;;;;;;5050107;28;20032;-61
2024/03/12 06:07:48;;;;;;;4.00;3.30;;;6.80;84.50;;;;;;5049116;28;20033;-61
2024/03/12 06:10:14;;;;;;;6.05;3.50;;;6.80;84.70;;;;;;5046923;28;20488;-61
2024/03/12 06:12:39;;;;;;;4.80;3.30;;;6.80;84.90;;;;;;5048126;28;20055;-61
2024/03/12 06:15:05;;;;;;;4.53;3.28;;;6.80;85.20;;;;;;5052189;28;20091;-61
2024/03/12 06:17:32;;;;;;;5.97;3.58;;;6.80;85.20;;;;;;5051419;28;20069;-62
2024/03/12 06:19:58;;;;;;;5.43;3.10;;;6.80;85.30;;;;;;5047322;28;20123;-61
2024/03/12 06:22:24;;;;;;;4.65;3.20;;;6.90;85.30;;;;;;5046400;28;20048;-60
2024/03/12 06:24:49;;;;;;;3.42;3.08;;;6.90;85.40;;;;;;5047805;28;20041;-61
2024/03/12 06:27:16;;;;;;;4.55;3.33;;;6.90;85.40;;;;;;5049065;28;20104;-61
2024/03/12 06:29:42;;;;;;;4.25;3.20;;;7.00;85.30;;;;;;5049110;28;20033;-60
2024/03/12 06:32:07;;;;;;;3.38;3.00;;;7.00;85.30;;;;;;5048419;28;20384;-60
2024/03/12 06:34:33;;;;;;;4.25;3.28;;;7.00;85.30;;;;;;5048470;28;20479;-60
2024/03/12 06:36:59;;;;;;;4.70;3.65;;;7.10;85.40;;;;;;5047928;28;20496;-61
2024/03/12 06:39:31;;;;;;;6.03;3.28;;;7.10;85.50;;;;;;5046873;28;20029;-60
2024/03/12 06:42:00;;;;;;;5.70;3.55;;;7.10;85.30;;;;;;5048740;28;20037;-61
2024/03/12 06:44:26;;;;;;;6.38;3.50;;;7.20;85.40;;;;;;5047379;28;20037;-62
2024/03/12 06:46:52;;;;;;;6.13;3.20;;;7.20;85.30;;;;;;5047476;28;20483;-60
2024/03/12 06:49:20;;;;;;;4.53;3.30;;;7.30;85.50;;;;;;5048577;28;20104;-60
2024/03/12 06:51:47;;;;;;;4.93;2.97;;;7.30;85.30;;;;;;5047195;28;20718;-61
2024/03/12 06:54:13;;;;;;;3.88;2.90;;;7.40;85.30;;;;;;5048405;28;20033;-60
2024/03/12 06:56:43;;;;;;;4.65;3.10;;;7.40;85.30;;;;;;5046304;28;20510;-61
2024/03/12 06:59:11;;;;;;;5.05;3.00;;;7.40;85.20;;;;;;5044715;28;20500;-59
2024/03/12 07:01:40;;;;;;;6.38;3.17;;;7.50;85.20;;;;;;5044754;28;21938;-61
2024/03/12 07:04:09;;;;;;;3.53;2.83;;;7.50;85.20;;;;;;5043533;28;20128;-61
2024/03/12 07:06:35;;;;;;;4.70;2.53;;;7.50;85.20;;;;;;5049464;28;20036;-61
2024/03/12 07:09:03;;;;;;;4.80;3.10;;;7.60;85.10;;;;;;5045519;28;20032;-61
2024/03/12 07:11:29;;;;;;;4.28;2.70;;;7.60;85.10;;;;;;5047820;28;20029;-60
2024/03/12 07:14:02;;;;;;;3.90;2.83;;;7.70;85.10;;;;;;5046806;28;20038;-61
2024/03/12 07:16:28;;;;;;;3.70;2.53;;;7.70;85.10;;;;;;5050692;28;20036;-61
2024/03/12 07:18:55;;;;;;;4.65;2.75;;;7.70;85.10;;;;;;5047890;28;20029;-61
2024/03/12 07:21:22;;;;;;;3.83;3.40;;;7.80;85.20;;;;;;5047765;28;20128;-60
2024/03/12 07:23:49;;;;;;;5.15;3.65;;;7.90;85.30;;;;;;5043853;28;20114;-59
2024/03/12 07:26:16;;;;;;;4.70;3.00;;;7.90;85.30;;;;;;5058903;28;20029;-61
2024/03/12 07:28:45;;;;;;;4.60;3.25;;;7.90;85.30;;;;;;5046738;28;20486;-61
2024/03/12 07:31:10;;;;;;;4.57;3.72;;;8.00;85.40;;;;;;5051404;28;20380;-61
2024/03/12 07:33:36;;;;;;;5.78;4.15;;;8.00;85.50;;;;;;5044689;28;20036;-60
2024/03/12 07:36:04;;;;;;;5.35;4.25;;;8.00;85.30;;;;;;5048773;28;20068;-61
2024/03/12 07:38:29;;;;;;;4.72;3.63;;;8.00;85.20;;;;;;5046305;28;20053;-61
2024/03/12 07:40:55;;;;;;;6.28;3.97;;;8.00;85.30;;;;;;5046065;28;20236;-61
2024/03/12 07:43:21;;;;;;;5.82;3.50;;;8.10;85.60;;;;;;5046538;28;20068;-60
2024/03/12 07:45:49;;;;;;;6.68;3.60;;;8.10;85.70;;;;;;5046893;28;20072;-61
2024/03/12 07:48:15;;;;;;;3.45;3.10;;;8.10;85.80;;;;;;5050051;28;20116;-61
2024/03/12 07:50:43;;;;;;;3.90;3.10;;;8.20;85.80;;;;;;5049525;28;20132;-62
2024/03/12 07:53:10;;;;;;;3.65;3.00;;;8.20;85.90;;;;;;5043779;28;20033;-61
2024/03/12 07:55:36;;;;;;;4.25;2.97;;;8.30;85.70;;;;;;5052698;28;20037;-61
2024/03/12 07:58:02;;;;;;;3.25;2.22;;;8.40;85.70;;;;;;5052193;28;20518;-61
2024/03/12 08:00:28;;;;;;;1.95;1.60;;;8.40;85.70;;;;;;5053062;28;20041;-60
2024/03/12 08:02:55;;;;;;;2.00;1.80;;;8.40;85.40;;;;;;5049904;28;20181;-61
2024/03/12 08:05:21;;;;;;;2.85;1.70;;;8.50;85.30;;;;;;5049404;28;20500;-61
2024/03/12 08:07:46;;;;;;;2.78;1.88;;;8.60;85.30;;;;;;5048220;28;20147;-60
2024/03/12 08:10:12;;;;;;;1.70;1.60;;;8.60;85.10;;;;;;5054793;28;20404;-61
2024/03/12 08:12:41;;;;;;;1.42;1.33;;;8.60;84.90;;;;;;5046374;28;20167;-62
2024/03/12 08:15:07;;;;;;;2.60;1.88;;;8.70;84.80;;;;;;5044425;28;20032;-62
2024/03/12 08:17:33;;;;;;;1.50;1.40;;;8.70;84.60;;;;;;5047639;28;20078;-62
2024/03/12 08:19:58;;;;;;;2.03;1.40;;;8.80;84.30;;;;;;5048704;28;20061;-61
2024/03/12 08:22:24;;;;;;;4.15;1.70;;;8.80;84.10;;;;;;5045805;28;20041;-61
2024/03/12 08:24:50;;;;;;;1.52;1.27;;;8.80;84.10;;;;;;5043688;28;20040;-62
2024/03/12 08:27:18;;;;;;;2.08;1.50;;;8.90;84.00;;;;;;5044036;28;20425;-61
2024/03/12 08:29:44;;;;;;;1.63;1.23;;;8.90;84.00;;;;;;5044162;28;20395;-59
2024/03/12 08:32:09;;;;;;;2.08;1.42;;;9.00;83.90;;;;;;5044759;28;20468;-61
2024/03/12 08:34:38;;;;;;;1.38;1.27;;;9.00;83.80;;;;;;5048450;28;20061;-61
2024/03/12 08:37:04;;;;;;;1.58;1.42;;;9.10;83.80;;;;;;5043947;28;20058;-61
2024/03/12 08:39:29;;;;;;;2.35;1.40;;;9.10;83.60;;;;;;5045712;28;20482;-60
2024/03/12 08:41:55;;;;;;;3.47;1.42;;;9.20;83.60;;;;;;5045196;28;20539;-61
2024/03/12 08:44:21;;;;;;;1.63;1.30;;;9.20;83.60;;;;;;5044405;28;20121;-62
2024/03/12 08:46:47;;;;;;;1.90;1.60;;;9.30;83.40;;;;;;5045161;28;20037;-61
2024/03/12 08:49:13;;;;;;;1.90;1.70;;;9.30;83.90;;;;;;5049694;28;20047;-59
2024/03/12 08:51:39;;;;;;;1.42;1.30;;;9.30;82.90;;;;;;5046046;28;20443;-60
2024/03/12 08:54:06;;;;;;;1.50;1.40;;;9.40;82.70;;;;;;5044344;28;20049;-61
2024/03/12 08:56:35;;;;;;;3.13;1.00;;;9.40;82.60;;;;;;5045048;28;20025;-58
2024/03/12 08:59:00;;;;;;;1.48;1.30;;;9.40;82.50;;;;;;5045572;28;20029;-61
2024/03/12 09:01:26;;;;;;;1.55;1.10;;;9.50;82.40;;;;;;5043354;28;20029;-60
2024/03/12 09:03:52;;;;;;;1.13;1.02;;;9.50;82.40;;;;;;5046903;28;20033;-61
2024/03/12 09:06:18;;;;;;;1.98;0.90;;;9.60;82.30;;;;;;5050256;28;20037;-62
2024/03/12 09:08:44;;;;;;;1.10;0.90;;;9.60;82.00;;;;;;5043942;28;21742;-61
2024/03/12 09:11:16;;;;;;;1.98;0.93;;;9.60;81.80;;;;;;5049016;28;20029;-62
2024/03/12 09:13:42;;;;;;;1.30;0.88;;;9.70;81.30;;;;;;5047085;28;20041;-61
2024/03/12 09:16:12;;;;;;;0.77;0.77;;;9.80;81.30;;;;;;5044537;28;20044;-61
2024/03/12 09:18:42;;;;;;;2.50;0.82;;;9.80;80.80;;;;;;5049317;28;20033;-62
2024/03/12 09:21:09;;;;;;;1.35;0.80;;;9.80;80.80;;;;;;5055189;28;20344;-61
2024/03/12 09:23:35;;;;;;;2.53;0.90;;;9.80;80.50;;;;;;5051583;28;20033;-60
2024/03/12 09:26:03;;;;;;;0.70;0.70;;;9.90;80.30;;;;;;5048697;28;20031;-61
2024/03/12 09:28:29;;;;;;;0.73;0.60;;;9.90;80.50;;;;;;5049818;28;20103;-62
2024/03/12 09:30:55;;;;;;;0.95;0.70;;;9.90;80.00;;;;;;5049574;28;20551;-61
2024/03/12 09:33:20;;;;;;;0.95;0.70;;;10.00;79.80;;;;;;5048830;28;20044;-62
2024/03/12 09:35:48;;;;;;;2.83;0.80;;;10.00;79.60;;;;;;5049914;28;20063;-62
2024/03/12 09:38:14;;;;;;;0.93;0.70;;;10.10;79.80;;;;;;5048761;28;20041;-60
2024/03/12 09:40:42;;;;;;;1.52;0.90;;;10.10;79.40;;;;;;5048559;28;20048;-62
2024/03/12 09:43:11;;;;;;;3.00;0.75;;;10.10;78.90;;;;;;5047846;28;20063;-60
2024/03/12 09:45:40;;;;;;;0.70;0.60;;;10.10;78.90;;;;;;5049665;28;20072;-61
2024/03/12 09:48:08;;;;;;;0.68;0.60;;;10.10;79.00;;;;;;5049662;28;20039;-61
2024/03/12 09:50:35;;;;;;;1.40;0.60;;;10.10;79.20;;;;;;5050942;28;20052;-61
2024/03/12 09:53:01;;;;;;;0.80;0.70;;;10.10;79.30;;;;;;5052584;28;20040;-60
2024/03/12 09:55:28;;;;;;;0.65;0.60;;;10.10;79.00;;;;;;5048872;28;20458;-60
2024/03/12 09:57:54;;;;;;;1.10;0.95;;;10.10;78.90;;;;;;5049167;28;20391;-60
2024/03/12 10:00:22;;;;;;;1.98;1.00;;;10.10;78.90;;;;;;5050278;28;20139;-60
2024/03/12 10:02:51;;;;;;;1.67;0.70;;;10.10;78.90;;;;;;5052815;28;20199;-61
2024/03/12 10:05:21;;;;;;;1.00;0.52;;;10.10;78.70;;;;;;5049780;28;20037;-61
2024/03/12 10:08:15;;;;;;;1.23;0.70;;;10.10;78.60;;;;;;5053305;28;20052;-62
2024/03/12 10:10:44;;;;;;;0.93;0.40;;;10.10;78.10;;;;;;5047706;28;20044;-61
2024/03/12 10:13:20;;;;;;;1.00;0.60;;;10.10;77.60;;;;;;5042816;28;20585;-60
2024/03/12 10:16:01;;;;;;;0.57;0.57;;;10.10;78.00;;;;;;5050390;28;20411;-61
2024/03/12 10:18:31;;;;;;;0.77;0.77;;;10.10;78.00;;;;;;5047614;28;20498;-61
2024/03/12 10:21:00;;;;;;;0.75;0.75;;;10.10;78.20;;;;;;5047783;28;20037;-62
2024/03/12 10:23:28;;;;;;;1.15;0.95;;;10.10;78.10;;;;;;5052993;28;20575;-61
2024/03/12 10:26:09;;;;;;;1.25;0.88;;;10.10;78.00;;;;;;5049161;28;20515;-60
2024/03/12 10:28:34;;;;;;;2.25;1.20;;;10.10;77.80;;;;;;5046570;28;20043;-61
2024/03/12 10:31:08;;;;;;;3.22;1.27;;;10.10;78.10;;;;;;5048946;28;20037;-60
2024/03/12 10:33:36;;;;;;;2.17;1.40;;;10.20;78.20;;;;;;5049265;28;20492;-62
2024/03/12 10:36:04;;;;;;;2.30;1.75;;;10.20;78.20;;;;;;5049402;28;20036;-61
2024/03/12 10:38:33;;;;;;;4.28;1.95;;;10.20;78.00;;;;;;5053055;28;20063;-62
2024/03/12 10:41:20;;;;;;;2.47;1.67;;;10.20;78.10;;;;;;5046422;28;20116;-61
2024/03/12 10:43:48;;;;;;;2.35;1.42;;;10.20;78.00;;;;;;5044612;28;20026;-61
2024/03/12 10:46:16;;;;;;;2.60;1.58;;;10.20;78.10;;;;;;5052640;28;20032;-61
2024/03/12 10:48:42;;;;;;;2.45;1.73;;;10.30;78.00;;;;;;5046767;28;20037;-60
2024/03/12 10:51:12;;;;;;;4.53;1.70;;;10.30;77.70;;;;;;5048589;28;20116;-62
2024/03/12 10:53:39;;;;;;;4.32;1.60;;;10.30;77.90;;;;;;5051717;28;20397;-60
2024/03/12 10:56:05;;;;;;;2.55;1.70;;;10.30;77.70;;;;;;5047721;28;20044;-62
2024/03/12 10:58:33;;;;;;;2.28;1.88;;;10.30;78.00;;;;;;5047333;28;20484;-62
2024/03/12 11:01:00;;;;;;;2.60;1.73;;;10.40;77.90;;;;;;5046568;28;20076;-61
2024/03/12 11:03:27;;;;;;;2.10;1.73;;;10.40;77.70;;;;;;5048974;28;20036;-62
2024/03/12 11:05:54;;;;;;;2.38;2.03;;;10.40;77.70;;;;;;5047008;28;20447;-60
2024/03/12 11:08:20;;;;;;;3.00;2.05;;;10.50;77.40;;;;;;5049335;28;20056;-61
2024/03/12 11:10:47;;;;;;;2.47;1.83;;;10.50;77.20;;;;;;5052179;28;20403;-62
2024/03/12 11:13:16;;;;;;;3.58;2.03;;;10.50;77.20;;;;;;5049673;28;20037;-60
2024/03/12 11:15:44;;;;;;;3.65;1.67;;;10.50;77.00;;;;;;5047714;28;20047;-60
2024/03/12 11:18:11;;;;;;;3.88;2.20;;;10.60;77.20;;;;;;5050628;28;20033;-62
2024/03/12 11:20:40;;;;;;;2.58;2.00;;;10.60;77.30;;;;;;5047476;28;20067;-60
2024/03/12 11:23:06;;;;;;;2.28;1.83;;;10.60;77.00;;;;;;5048507;28;20488;-61
2024/03/12 11:25:43;;;;;;;2.13;1.80;;;10.60;77.00;;;;;;5052840;28;20143;-62
2024/03/12 11:28:22;;;;;;;3.28;1.95;;;10.60;76.80;;;;;;5041024;28;20048;-61
2024/03/12 11:31:02;;;;;;;2.28;1.83;;;10.70;76.30;;;;;;5049500;28;20037;-61
2024/03/12 11:33:51;;;;;;;2.88;2.10;;;10.70;76.40;;;;;;5047124;28;20039;-61
2024/03/12 11:36:39;;;;;;;1.95;1.67;;;10.70;76.30;;;;;;5045613;28;20516;-61
2024/03/12 11:39:23;;;;;;;3.85;2.10;;;10.70;76.40;;;;;;5047347;28;20114;-62
2024/03/12 11:42:00;;;;;;;2.20;2.00;;;10.70;76.10;;;;;;5046772;28;20048;-62
2024/03/12 11:44:52;;;;;;;2.70;1.92;;;10.70;75.70;;;;;;5048547;28;20042;-62
2024/03/12 11:47:29;;;;;;;4.85;2.13;;;10.60;75.60;;;;;;5043681;28;20119;-62
2024/03/12 11:49:55;;;;;;;2.88;2.13;;;10.70;75.70;;;;;;5048333;28;20373;-61
2024/03/12 11:52:21;;;;;;;3.83;2.17;;;10.70;75.90;;;;;;5047974;28;20037;-61
2024/03/12 11:54:48;;;;;;;2.33;2.10;;;10.60;75.90;;;;;;5046985;28;20056;-61
2024/03/12 11:57:41;;;;;;;2.08;1.80;;;10.60;75.80;;;;;;5041046;28;20049;-61
2024/03/12 12:00:09;;;;;;;5.57;2.03;;;10.70;75.80;;;;;;5044925;28;20456;-61
2024/03/12 12:02:40;;;;;;;2.35;2.00;;;10.60;76.10;;;;;;5045624;28;20025;-61
2024/03/12 12:05:09;;;;;;;2.72;1.98;;;10.60;76.00;;;;;;5047399;28;20091;-62
2024/03/12 12:07:34;;;;;;;3.80;2.58;;;10.60;76.10;;;;;;5049590;28;20033;-62
2024/03/12 12:10:00;;;;;;;3.60;2.40;;;10.60;76.00;;;;;;5046612;28;20082;-62
2024/03/12 12:12:26;;;;;;;2.67;2.40;;;10.60;75.90;;;;;;5050234;28;20124;-61
2024/03/12 12:14:53;;;;;;;3.53;2.38;;;10.60;76.10;;;;;;5047552;28;20715;-62
2024/03/12 12:17:24;;;;;;;3.50;2.67;;;10.60;76.10;;;;;;5046222;28;20115;-62
2024/03/12 12:20:13;;;;;;;5.85;2.80;;;10.70;76.10;;;;;;5046427;28;20041;-60
2024/03/12 12:22:44;;;;;;;6.15;2.78;;;10.70;75.90;;;;;;5048652;28;20053;-61
2024/03/12 12:25:11;;;;;;;5.72;2.85;;;10.70;76.20;;;;;;5045873;28;20029;-60
2024/03/12 12:27:38;;;;;;;4.45;2.88;;;10.80;76.30;;;;;;5051967;28;20025;-61
2024/03/12 12:30:07;;;;;;;4.18;2.65;;;10.80;76.10;;;;;;5047524;28;20041;-62
2024/03/12 12:32:34;;;;;;;3.30;2.55;;;10.80;75.80;;;;;;5047221;28;20025;-60
2024/03/12 12:35:02;;;;;;;3.00;2.50;;;10.90;75.80;;;;;;5045102;28;20041;-61
2024/03/12 12:37:28;;;;;;;4.00;2.53;;;10.90;76.50;;;;;;5047247;28;20040;-60
2024/03/12 12:39:54;;;;;;;3.33;2.42;;;10.90;75.50;;;;;;5045241;28;20059;-62
2024/03/12 12:42:21;;;;;;;3.70;2.35;;;10.90;75.40;;;;;;5048970;28;20041;-62
2024/03/12 12:44:53;;;;;;;4.03;2.70;;;10.90;75.30;;;;;;5045674;28;20033;-62
2024/03/12 12:47:21;;;;;;;4.30;2.13;;;10.90;75.20;;;;;;5046676;28;20108;-62
2024/03/12 12:49:52;;;;;;;3.05;2.33;;;10.90;75.30;;;;;;5044697;28;20040;-62
2024/03/12 12:52:19;;;;;;;3.60;2.00;;;10.90;75.30;;;;;;5044196;28;20111;-62
2024/03/12 12:54:48;;;;;;;2.10;1.90;;;10.90;75.30;;;;;;5044629;28;20096;-62
2024/03/12 12:57:14;;;;;;;2.75;1.90;;;10.80;75.30;;;;;;5047403;28;20095;-61
2024/03/12 12:59:40;;;;;;;3.15;2.20;;;10.80;75.60;;;;;;5046025;28;20033;-62
2024/03/12 13:02:13;;;;;;;2.63;2.00;;;10.80;76.10;;;;;;5046194;28;20321;-62
2024/03/12 13:04:39;;;;;;;2.50;2.30;;;10.90;76.60;;;;;;5046622;28;20037;-62
2024/03/12 13:07:07;;;;;;;2.83;2.28;;;10.80;76.70;;;;;;5043261;28;20048;-62
2024/03/12 13:09:41;;;;;;;4.65;2.25;;;10.90;76.90;;;;;;5047130;28;20116;-62